createdAt,value
2019-04-30T00:01:18.929Z,55.35
2019-04-30T00:03:55.794Z,55.75
2019-04-30T00:06:22.171Z,54.90
2019-04-30T00:08:49.566Z,54.31
2019-04-30T00:11:19.480Z,54.86
2019-04-30T00:13:50.150Z,54.00
2019-04-30T00:16:16.084Z,52.90
2019-04-30T00:18:57.090Z,51.40
2019-04-30T00:21:15.174Z,51.53
2019-04-30T00:23:42.412Z,50.86
2019-04-30T00:26:10.481Z,50.11
2019-04-30T00:28:39.437Z,52.09
2019-04-30T00:31:07.560Z,50.79
2019-04-30T00:33:35.350Z,50.62
2019-04-30T00:36:05.011Z,49.23
2019-04-30T00:38:34.345Z,49.95
2019-04-30T00:41:06.131Z,50.09
2019-04-30T00:43:31.463Z,51.30
2019-04-30T00:45:58.935Z,55.56
2019-04-30T00:48:29.738Z,58.42
2019-04-30T00:50:55.889Z,60.27
2019-04-30T00:53:23.349Z,61.18
2019-04-30T00:55:50.819Z,61.80
2019-04-30T00:58:24.928Z,61.72
2019-04-30T01:01:04.123Z,62.40
2019-04-30T01:03:30.774Z,63.03
2019-04-30T01:05:58.163Z,65.09
2019-04-30T01:08:28.466Z,66.07
2019-04-30T01:10:55.608Z,66.20
2019-04-30T01:13:23.259Z,66.58
2019-04-30T01:15:52.469Z,68.30
2019-04-30T01:18:23.566Z,69.42
2019-04-30T01:20:49.467Z,70.11
2019-04-30T01:23:16.964Z,70.40
2019-04-30T01:25:49.967Z,70.33
2019-04-30T01:28:16.293Z,69.55
2019-04-30T01:30:44.099Z,71.03
2019-04-30T01:33:11.889Z,72.09
2019-04-30T01:35:40.626Z,71.80
2019-04-30T01:38:11.608Z,72.98
2019-04-30T01:40:42.896Z,73.37
2019-04-30T01:43:11.238Z,73.30
2019-04-30T01:45:38.777Z,73.79
2019-04-30T01:48:10.757Z,73.63
2019-04-30T01:50:38.671Z,73.33
2019-04-30T01:53:11.534Z,73.23
2019-04-30T01:55:46.744Z,72.61
2019-04-30T01:58:40.438Z,71.36
2019-04-30T02:01:12.660Z,72.28
2019-04-30T02:03:40.223Z,71.85
2019-04-30T02:06:09.138Z,72.69
2019-04-30T02:08:36.979Z,72.03
2019-04-30T02:11:04.508Z,72.10
2019-04-30T02:13:34.480Z,72.53
2019-04-30T02:16:01.252Z,74.15
2019-04-30T02:18:29.634Z,74.12
2019-04-30T02:20:59.326Z,72.96
2019-04-30T02:23:26.698Z,72.49
2019-04-30T02:25:54.120Z,72.83
2019-04-30T02:28:21.525Z,72.66
2019-04-30T02:30:50.358Z,74.39
2019-04-30T02:33:19.812Z,74.55
2019-04-30T02:36:19.701Z,74.78
2019-04-30T02:38:50.103Z,74.21
2019-04-30T02:41:20.108Z,74.01
2019-04-30T02:43:50.949Z,75.73
2019-04-30T02:46:20.826Z,75.80
2019-04-30T02:48:50.409Z,75.37
2019-04-30T02:51:22.830Z,75.90
2019-04-30T02:54:24.098Z,76.92
2019-04-30T02:57:00.503Z,75.93
2019-04-30T02:59:30.005Z,75.77
2019-04-30T03:01:59.785Z,76.50
2019-04-30T03:04:29.235Z,77.50
2019-04-30T03:06:55.986Z,77.66
2019-04-30T03:09:23.432Z,78.26
2019-04-30T03:11:50.890Z,80.12
2019-04-30T03:14:20.051Z,82.01
2019-04-30T03:17:09.966Z,81.77
2019-04-30T03:19:44.708Z,82.06
2019-04-30T03:22:20.155Z,82.74
2019-04-30T03:24:49.818Z,83.21
2019-04-30T03:27:16.363Z,83.35
2019-04-30T03:29:43.805Z,83.94
2019-04-30T03:32:13.358Z,82.93
2019-04-30T03:34:42.061Z,82.15
2019-04-30T03:37:10.183Z,81.38
2019-04-30T03:39:40.051Z,82.15
2019-04-30T03:42:09.786Z,81.71
2019-04-30T03:44:39.702Z,81.81
2019-04-30T03:47:05.822Z,80.07
2019-04-30T03:49:33.260Z,79.57
2019-04-30T03:52:00.732Z,79.37
2019-04-30T03:54:29.305Z,79.39
2019-04-30T03:57:00.685Z,79.41
2019-04-30T03:59:30.117Z,79.18
2019-04-30T04:02:30.204Z,78.56
2019-04-30T04:05:20.365Z,78.27
2019-04-30T04:08:05.929Z,77.38
2019-04-30T04:11:01.630Z,77.56
2019-04-30T04:13:30.094Z,77.47
2019-04-30T04:15:59.955Z,76.10
2019-04-30T04:18:30.059Z,76.29
2019-04-30T04:21:08.753Z,75.45
2019-04-30T04:23:26.184Z,73.49
2019-04-30T04:25:53.648Z,73.92
2019-04-30T04:28:21.126Z,72.03
2019-04-30T04:30:50.537Z,71.55
2019-04-30T04:33:19.968Z,71.35
2019-04-30T04:35:49.782Z,69.94
2019-04-30T04:38:16.748Z,72.22
2019-04-30T04:40:44.165Z,72.52
2019-04-30T04:43:11.780Z,73.14
2019-04-30T04:45:43.385Z,71.94
2019-04-30T04:48:09.587Z,70.47
2019-04-30T04:50:39.790Z,70.24
2019-04-30T04:53:08.913Z,68.96
2019-04-30T04:55:35.934Z,68.05
2019-04-30T04:58:03.462Z,66.27
2019-04-30T05:00:30.910Z,65.71
2019-04-30T05:03:26.921Z,65.50
2019-04-30T05:05:54.364Z,64.22
2019-04-30T05:08:21.784Z,64.58
2019-04-30T05:10:49.563Z,63.11
2019-04-30T05:13:19.072Z,62.79
2019-04-30T05:15:46.432Z,62.38
2019-04-30T05:18:13.856Z,60.19
2019-04-30T05:20:41.747Z,61.01
2019-04-30T05:23:09.507Z,60.16
2019-04-30T05:25:36.941Z,60.23
2019-04-30T05:28:04.484Z,59.09
2019-04-30T05:30:31.965Z,59.20
2019-04-30T05:32:59.444Z,58.93
2019-04-30T05:35:28.724Z,58.62
2019-04-30T05:37:56.252Z,56.88
2019-04-30T05:40:24.158Z,56.86
2019-04-30T05:42:51.550Z,56.67
2019-04-30T05:45:19.446Z,57.73
2019-04-30T05:47:50.202Z,58.41
2019-04-30T05:50:16.360Z,58.01
2019-04-30T05:52:43.798Z,58.09
2019-04-30T05:55:11.562Z,57.88
2019-04-30T05:57:47.223Z,58.91
2019-04-30T06:00:09.912Z,61.31
2019-04-30T06:02:39.892Z,61.54
2019-04-30T06:05:08.805Z,61.26
2019-04-30T06:07:36.555Z,60.99
2019-04-30T06:10:20.504Z,60.88
2019-04-30T06:13:09.474Z,59.88
2019-04-30T06:15:45.133Z,58.63
2019-04-30T06:18:14.040Z,58.76
2019-04-30T06:20:41.630Z,57.82
2019-04-30T06:23:09.725Z,57.67
2019-04-30T06:25:55.610Z,56.13
2019-04-30T06:28:07.140Z,56.96
2019-04-30T06:30:35.014Z,57.17
2019-04-30T06:33:02.887Z,58.49
2019-04-30T06:35:30.536Z,57.76
2019-04-30T06:37:59.026Z,58.36
2019-04-30T06:40:29.143Z,57.10
2019-04-30T06:43:00.405Z,57.49
2019-04-30T06:45:28.991Z,56.48
2019-04-30T06:47:59.258Z,56.35
2019-04-30T06:50:26.703Z,54.92
2019-04-30T06:52:58.619Z,55.28
2019-04-30T06:55:23.637Z,54.05
2019-04-30T06:57:51.140Z,53.68
2019-04-30T07:00:32.699Z,55.58
2019-04-30T07:02:49.861Z,51.43
2019-04-30T07:05:18.584Z,51.43
2019-04-30T07:08:09.302Z,52.16
2019-04-30T07:10:35.323Z,52.55
2019-04-30T07:13:18.778Z,52.80
2019-04-30T07:15:46.495Z,53.94
2019-04-30T07:18:14.024Z,55.23
2019-04-30T07:20:41.441Z,57.94
2019-04-30T07:23:09.376Z,59.19
2019-04-30T07:25:38.942Z,57.88
2019-04-30T07:28:06.473Z,56.81
2019-04-30T07:30:34.118Z,56.35
2019-04-30T07:33:01.620Z,57.35
2019-04-30T07:35:29.325Z,58.13
2019-04-30T07:38:00.659Z,58.49
2019-04-30T07:40:26.230Z,57.05
2019-04-30T07:42:53.664Z,58.15
2019-04-30T07:45:25.433Z,58.23
2019-04-30T07:47:50.458Z,58.34
2019-04-30T07:50:20.565Z,58.21
2019-04-30T07:52:58.864Z,56.37
2019-04-30T07:55:16.727Z,57.02
2019-04-30T07:57:44.148Z,57.45
2019-04-30T08:00:12.540Z,56.85
2019-04-30T08:02:46.064Z,54.75
2019-04-30T08:05:20.280Z,51.62
2019-04-30T08:07:48.959Z,56.35
2019-04-30T08:10:18.799Z,54.66
2019-04-30T08:12:46.784Z,54.78
2019-04-30T08:15:15.199Z,54.74
2019-04-30T08:17:42.573Z,54.93
2019-04-30T08:20:10.112Z,53.20
2019-04-30T08:22:40.881Z,53.86
2019-04-30T08:25:06.967Z,50.67
2019-04-30T08:27:34.388Z,51.48
2019-04-30T08:30:01.854Z,50.62
2019-04-30T08:32:29.260Z,48.41
2019-04-30T08:34:56.700Z,47.68
2019-04-30T08:37:24.112Z,46.63
2019-04-30T08:39:51.536Z,44.20
2019-04-30T08:42:30.982Z,44.32
2019-04-30T08:44:48.575Z,44.16
2019-04-30T08:47:16.107Z,42.98
2019-04-30T08:49:43.926Z,44.46
2019-04-30T08:52:12.126Z,45.52
2019-04-30T08:54:39.680Z,44.71
2019-04-30T08:57:08.591Z,42.24
2019-04-30T08:59:36.259Z,38.46
2019-04-30T09:02:13.679Z,37.68
2019-04-30T09:04:33.220Z,35.07
2019-04-30T09:07:00.670Z,35.13
2019-04-30T09:09:29.534Z,34.03
2019-04-30T09:11:59.184Z,33.92
2019-04-30T09:14:26.777Z,34.06
2019-04-30T09:16:54.229Z,34.11
2019-04-30T09:19:21.642Z,34.82
2019-04-30T09:21:49.115Z,36.24
2019-04-30T09:24:16.602Z,37.05
2019-04-30T09:26:43.985Z,38.34
2019-04-30T09:29:11.588Z,38.42
2019-04-30T09:31:40.975Z,40.21
2019-04-30T09:34:15.292Z,39.91
2019-04-30T09:36:39.124Z,41.12
2019-04-30T09:39:08.923Z,40.67
2019-04-30T09:41:37.108Z,39.83
2019-04-30T09:44:05.048Z,41.14
2019-04-30T09:46:32.514Z,47.27
2019-04-30T09:48:59.986Z,49.48
2019-04-30T09:51:29.903Z,51.48
2019-04-30T09:54:00.636Z,52.87
2019-04-30T09:56:26.301Z,56.37
2019-04-30T09:58:53.732Z,58.37
2019-04-30T10:01:22.150Z,59.79
2019-04-30T10:03:50.541Z,58.70
2019-04-30T10:06:19.006Z,58.48
2019-04-30T10:08:50.564Z,58.64
2019-04-30T10:11:53.764Z,59.71
2019-04-30T10:14:21.263Z,59.88
2019-04-30T10:17:02.813Z,61.07
2019-04-30T10:19:30.374Z,60.79
2019-04-30T10:21:58.978Z,61.08
2019-04-30T10:24:26.568Z,59.17
2019-04-30T10:26:53.994Z,58.09
2019-04-30T10:29:21.568Z,56.89
2019-04-30T10:31:49.080Z,56.26
2019-04-30T10:34:16.652Z,56.65
2019-04-30T10:36:44.129Z,56.57
2019-04-30T10:39:12.071Z,59.89
2019-04-30T10:41:39.616Z,59.23
2019-04-30T10:44:08.900Z,62.92
2019-04-30T10:46:37.901Z,64.95
2019-04-30T10:49:05.370Z,64.96
2019-04-30T10:51:33.039Z,62.64
2019-04-30T10:54:00.507Z,61.01
2019-04-30T10:56:29.177Z,58.79
2019-04-30T10:58:56.650Z,58.87
2019-04-30T11:01:24.119Z,58.77
2019-04-30T11:03:51.513Z,55.14
2019-04-30T11:06:19.251Z,54.27
2019-04-30T11:08:46.985Z,52.47
2019-04-30T11:11:14.404Z,49.61
2019-04-30T11:13:41.891Z,50.02
2019-04-30T11:16:13.225Z,49.86
2019-04-30T11:18:39.069Z,47.61
2019-04-30T11:21:06.913Z,46.92
2019-04-30T11:23:34.717Z,45.66
2019-04-30T11:26:03.216Z,46.25
2019-04-30T11:28:31.345Z,46.25
2019-04-30T11:31:18.791Z,45.70
2019-04-30T11:33:46.933Z,45.97
2019-04-30T11:36:14.938Z,46.12
2019-04-30T11:38:42.533Z,46.48
2019-04-30T11:41:10.296Z,46.88
2019-04-30T11:43:39.422Z,47.51
2019-04-30T11:46:50.569Z,48.34
2019-04-30T11:49:17.993Z,49.00
2019-04-30T11:51:45.429Z,48.77
2019-04-30T11:54:12.862Z,48.67
2019-04-30T11:56:40.346Z,47.95
2019-04-30T11:59:08.702Z,48.69
2019-04-30T12:01:36.250Z,48.28
2019-04-30T12:04:04.204Z,47.53
2019-04-30T12:06:31.696Z,48.19
2019-04-30T12:09:09.247Z,46.07
2019-04-30T12:11:37.985Z,45.66
2019-04-30T12:14:05.605Z,46.08
2019-04-30T12:16:33.721Z,46.63
2019-04-30T12:19:01.542Z,44.87
2019-04-30T12:21:29.127Z,44.92
2019-04-30T12:23:56.642Z,44.23
2019-04-30T12:26:24.119Z,44.54
2019-04-30T12:28:51.552Z,43.95
2019-04-30T12:31:19.101Z,44.28
2019-04-30T12:33:46.548Z,43.37
2019-04-30T12:36:14.027Z,42.73
2019-04-30T12:38:41.424Z,40.92
2019-04-30T12:41:08.872Z,41.43
2019-04-30T12:43:36.311Z,40.87
2019-04-30T12:46:05.607Z,41.28
2019-04-30T12:48:41.631Z,40.77
2019-04-30T12:51:24.756Z,39.35
2019-04-30T12:53:57.554Z,40.20
2019-04-30T12:56:44.515Z,38.36
2019-04-30T12:59:11.998Z,34.98
2019-04-30T13:01:40.008Z,30.62
2019-04-30T13:04:09.653Z,28.16
2019-04-30T13:06:37.568Z,27.80
2019-04-30T13:09:10.949Z,28.55
2019-04-30T13:11:40.526Z,27.75
2019-04-30T13:14:10.159Z,26.46
2019-04-30T13:16:39.187Z,26.97
2019-04-30T13:19:06.690Z,26.52
2019-04-30T13:21:34.078Z,25.84
2019-04-30T13:24:01.623Z,25.55
2019-04-30T13:26:29.051Z,24.27
2019-04-30T13:29:04.034Z,21.75
2019-04-30T13:31:31.516Z,21.38
2019-04-30T13:34:18.570Z,22.20
2019-04-30T13:36:46.126Z,22.54
2019-04-30T13:39:19.575Z,22.31
2019-04-30T13:41:54.936Z,22.83
2019-04-30T13:44:29.459Z,22.45
2019-04-30T13:46:57.070Z,21.58
2019-04-30T13:49:24.760Z,21.30
2019-04-30T13:51:52.125Z,21.02
2019-04-30T13:54:19.579Z,19.72
2019-04-30T13:56:49.161Z,20.35
2019-04-30T13:59:16.658Z,20.45
2019-04-30T14:01:44.152Z,21.86
2019-04-30T14:04:18.415Z,21.23
2019-04-30T14:07:01.442Z,21.43
2019-04-30T14:09:30.019Z,20.90
2019-04-30T14:11:57.511Z,20.35
2019-04-30T14:14:24.958Z,20.40
2019-04-30T14:16:52.586Z,19.29
2019-04-30T14:19:20.250Z,19.93
2019-04-30T14:21:49.366Z,20.77
2019-04-30T14:24:19.147Z,19.66
2019-04-30T14:26:46.585Z,19.94
2019-04-30T14:29:14.031Z,19.72
2019-04-30T14:31:41.414Z,19.84
2019-04-30T14:34:10.096Z,20.08
2019-04-30T14:36:39.207Z,19.87
2019-04-30T14:39:14.461Z,20.67
2019-04-30T14:41:39.612Z,20.44
2019-04-30T14:44:14.565Z,19.93
2019-04-30T14:47:12.477Z,20.33
2019-04-30T14:50:14.649Z,20.14
2019-04-30T14:52:49.282Z,24.17
2019-04-30T14:55:34.574Z,28.89
2019-04-30T14:58:29.251Z,30.95
2019-04-30T15:01:14.911Z,32.33
2019-04-30T15:03:42.352Z,33.79
2019-04-30T15:06:11.076Z,33.79
2019-04-30T15:08:39.413Z,34.17
2019-04-30T15:11:09.110Z,35.50
2019-04-30T15:13:36.674Z,34.35
2019-04-30T15:16:04.299Z,34.88
2019-04-30T15:18:31.748Z,35.79
2019-04-30T15:20:59.546Z,36.26
2019-04-30T15:23:45.087Z,36.53
2019-04-30T15:26:22.055Z,36.06
2019-04-30T15:28:41.860Z,36.65
2019-04-30T15:31:09.211Z,36.97
2019-04-30T15:33:43.906Z,36.85
2019-04-30T15:36:11.355Z,36.97
2019-04-30T15:38:57.135Z,36.43
2019-04-30T15:41:25.212Z,36.88
2019-04-30T15:43:52.709Z,37.60
2019-04-30T15:46:20.171Z,37.99
2019-04-30T15:48:47.568Z,37.88
2019-04-30T15:51:15.562Z,38.09
2019-04-30T15:53:43.155Z,38.17
2019-04-30T15:56:10.565Z,37.60
2019-04-30T15:58:39.941Z,37.13
2019-04-30T16:01:09.149Z,37.83
2019-04-30T16:03:38.188Z,38.16
2019-04-30T16:06:05.544Z,38.62
2019-04-30T16:08:39.050Z,38.56
2019-04-30T16:11:16.155Z,38.66
2019-04-30T16:14:18.648Z,39.91
2019-04-30T16:16:57.220Z,40.93
2019-04-30T16:19:24.658Z,41.88
2019-04-30T16:21:52.105Z,42.67
2019-04-30T16:24:19.725Z,43.38
2019-04-30T16:26:52.075Z,43.58
2019-04-30T16:29:16.729Z,44.07
2019-04-30T16:31:44.247Z,44.50
2019-04-30T16:34:11.765Z,44.45
2019-04-30T16:36:39.198Z,44.92
2019-04-30T16:39:08.778Z,44.71
2019-04-30T16:41:36.295Z,45.09
2019-04-30T16:44:03.901Z,45.53
2019-04-30T16:46:31.541Z,45.95
2019-04-30T16:48:59.005Z,46.79
2019-04-30T16:51:28.678Z,47.39
2019-04-30T16:53:55.782Z,48.01
2019-04-30T16:56:23.263Z,48.42
2019-04-30T16:59:00.416Z,48.97
2019-04-30T17:01:28.885Z,49.61
2019-04-30T17:04:01.463Z,50.39
2019-04-30T17:06:30.450Z,51.12
2019-04-30T17:09:06.230Z,51.68
2019-04-30T17:11:51.547Z,51.92
2019-04-30T17:14:19.105Z,52.53
2019-04-30T17:16:48.895Z,53.13
2019-04-30T17:19:15.904Z,53.14
2019-04-30T17:21:43.338Z,53.45
2019-04-30T17:24:10.736Z,53.37
2019-04-30T17:26:40.097Z,53.65
2019-04-30T17:29:09.494Z,53.91
2019-04-30T17:31:36.950Z,53.94
2019-04-30T17:34:04.474Z,53.86
2019-04-30T17:36:31.947Z,54.34
2019-04-30T17:38:59.361Z,54.11
2019-04-30T17:41:26.910Z,54.43
2019-04-30T17:43:54.378Z,54.31
2019-04-30T17:46:21.857Z,54.77
2019-04-30T17:48:49.573Z,55.01
2019-04-30T17:51:17.120Z,54.96
2019-04-30T17:54:02.645Z,55.36
2019-04-30T17:56:30.072Z,55.08
2019-04-30T17:58:57.458Z,54.58
2019-04-30T18:01:25.290Z,54.61
2019-04-30T18:03:52.756Z,54.99
2019-04-30T18:06:20.174Z,55.43
2019-04-30T18:08:47.662Z,55.47
2019-04-30T18:11:15.212Z,55.34
2019-04-30T18:13:42.643Z,55.86
2019-04-30T18:16:10.181Z,56.25
2019-04-30T18:18:45.195Z,55.89
2019-04-30T18:21:23.429Z,54.78
2019-04-30T18:24:16.497Z,54.78
2019-04-30T18:26:51.722Z,56.52
2019-04-30T18:29:19.206Z,58.72
2019-04-30T18:31:46.785Z,59.92
2019-04-30T18:34:14.214Z,60.56
2019-04-30T18:36:41.648Z,61.66
2019-04-30T18:39:09.201Z,62.17
2019-04-30T18:41:36.666Z,62.83
2019-04-30T18:44:04.315Z,63.25
2019-04-30T18:46:31.740Z,63.27
2019-04-30T18:48:59.289Z,62.45
2019-04-30T18:51:36.481Z,62.44
2019-04-30T18:53:56.099Z,63.18
2019-04-30T18:56:23.548Z,63.22
2019-04-30T18:58:50.908Z,63.20
2019-04-30T19:01:18.457Z,63.36
2019-04-30T19:03:45.886Z,63.30
2019-04-30T19:06:23.870Z,62.79
2019-04-30T19:09:10.344Z,62.54
2019-04-30T19:11:49.360Z,63.02
2019-04-30T19:14:39.600Z,63.03
2019-04-30T19:17:25.618Z,63.67
2019-04-30T19:20:08.579Z,63.12
2019-04-30T19:22:36.804Z,62.97
2019-04-30T19:25:04.655Z,63.22
2019-04-30T19:27:32.139Z,62.95
2019-04-30T19:29:59.568Z,63.37
2019-04-30T19:32:30.266Z,63.78
2019-04-30T19:34:56.424Z,62.97
2019-04-30T19:37:23.862Z,62.48
2019-04-30T19:39:51.264Z,62.16
2019-04-30T19:42:18.812Z,61.76
2019-04-30T19:44:56.779Z,61.94
2019-04-30T19:47:16.280Z,62.50
2019-04-30T19:49:43.725Z,63.16
2019-04-30T19:52:11.835Z,63.31
2019-04-30T19:54:39.837Z,63.86
2019-04-30T19:57:07.250Z,64.14
2019-04-30T19:59:34.647Z,64.36
2019-04-30T20:02:02.059Z,64.83
2019-04-30T20:04:34.136Z,65.07
2019-04-30T20:06:59.170Z,65.59
2019-04-30T20:09:26.631Z,65.41
2019-04-30T20:11:56.760Z,65.87
2019-04-30T20:14:23.387Z,66.57
2019-04-30T20:16:50.892Z,66.23
2019-04-30T20:19:18.333Z,65.63
2019-04-30T20:21:53.099Z,65.22
2019-04-30T20:24:15.386Z,64.81
2019-04-30T20:26:42.847Z,65.13
2019-04-30T20:29:10.287Z,65.34
2019-04-30T20:31:38.679Z,66.40
2019-04-30T20:34:06.584Z,67.50
2019-04-30T20:36:36.409Z,67.35
2019-04-30T20:39:24.407Z,67.44
2019-04-30T20:41:52.882Z,67.61
2019-04-30T20:44:20.343Z,67.52
2019-04-30T20:46:49.084Z,67.33
2019-04-30T20:49:16.576Z,67.43
2019-04-30T20:51:53.474Z,66.93
2019-04-30T20:54:13.300Z,67.16
2019-04-30T20:56:40.769Z,67.60
2019-04-30T20:59:10.729Z,67.70
2019-04-30T21:01:39.204Z,67.87
2019-04-30T21:04:06.729Z,68.49
2019-04-30T21:06:34.182Z,68.64
2019-04-30T21:09:01.624Z,68.72
2019-04-30T21:11:29.072Z,68.85
2019-04-30T21:13:56.417Z,68.51
2019-04-30T21:16:23.861Z,68.56
2019-04-30T21:18:51.303Z,68.92
2019-04-30T21:21:20.499Z,69.50
2019-04-30T21:23:49.176Z,70.39
2019-04-30T21:26:16.656Z,70.85
2019-04-30T21:28:44.011Z,71.19
2019-04-30T21:31:29.518Z,70.95
2019-04-30T21:34:04.278Z,70.49
2019-04-30T21:36:31.851Z,69.88
2019-04-30T21:38:59.444Z,69.98
2019-04-30T21:41:26.920Z,69.91
2019-04-30T21:43:54.741Z,69.89
2019-04-30T21:46:22.217Z,70.40
2019-04-30T21:48:49.695Z,71.63
2019-04-30T21:51:19.125Z,72.82
2019-04-30T21:53:46.454Z,73.54
2019-04-30T21:56:13.884Z,73.93
2019-04-30T21:58:41.340Z,74.52
2019-04-30T22:01:25.106Z,75.08
2019-04-30T22:03:52.555Z,75.45
2019-04-30T22:06:19.948Z,75.60
2019-04-30T22:08:48.608Z,75.34
2019-04-30T22:11:16.264Z,75.15
2019-04-30T22:13:43.662Z,75.06
2019-04-30T22:16:11.111Z,75.12
2019-04-30T22:18:38.592Z,74.96
2019-04-30T22:21:06.085Z,74.91
2019-04-30T22:23:33.551Z,74.99
2019-04-30T22:26:01.015Z,74.46
2019-04-30T22:28:28.421Z,74.32
2019-04-30T22:30:55.986Z,74.05
2019-04-30T22:33:23.485Z,73.81
2019-04-30T22:36:02.135Z,74.37
2019-04-30T22:38:33.250Z,74.59
2019-04-30T22:41:00.739Z,75.35
2019-04-30T22:43:28.224Z,75.51
2019-04-30T22:46:00.778Z,75.62
2019-04-30T22:48:28.685Z,75.23
2019-04-30T22:50:56.300Z,75.58
2019-04-30T22:53:23.762Z,76.29
2019-04-30T22:55:51.199Z,77.05
2019-04-30T22:58:18.744Z,77.87
2019-04-30T23:00:46.803Z,78.36
2019-04-30T23:03:19.149Z,78.73
2019-04-30T23:05:46.637Z,79.06
2019-04-30T23:08:14.089Z,79.47
2019-04-30T23:10:41.534Z,79.76
2019-04-30T23:13:08.951Z,80.02
2019-04-30T23:15:36.353Z,80.52
2019-04-30T23:18:03.917Z,80.52
2019-04-30T23:20:31.374Z,80.49
2019-04-30T23:22:58.824Z,81.45
2019-04-30T23:25:26.174Z,81.48
2019-04-30T23:27:53.623Z,79.99
2019-04-30T23:30:21.053Z,80.06
2019-04-30T23:32:48.444Z,79.07
2019-04-30T23:35:15.979Z,78.50
2019-04-30T23:37:43.537Z,78.90
2019-04-30T23:40:29.117Z,79.61
2019-04-30T23:42:56.767Z,80.06
2019-04-30T23:45:24.482Z,80.33
2019-04-30T23:47:51.856Z,80.67
2019-04-30T23:50:19.373Z,81.02
2019-04-30T23:52:46.899Z,81.35
2019-04-30T23:55:14.445Z,81.71
2019-04-30T23:57:41.883Z,82.09
